createdAt,value
2023-02-19T00:00:16.781Z,9.71
2023-02-19T00:01:17.277Z,9.72
2023-02-19T00:02:17.157Z,9.68
2023-02-19T00:03:16.674Z,9.71
2023-02-19T00:04:17.203Z,9.69
2023-02-19T00:05:16.707Z,9.68
2023-02-19T00:06:17.286Z,9.68
2023-02-19T00:07:16.771Z,9.66
2023-02-19T00:08:17.284Z,9.65
2023-02-19T00:09:16.792Z,9.62
2023-02-19T00:10:16.472Z,9.61
2023-02-19T00:11:16.970Z,9.64
2023-02-19T00:12:16.540Z,9.58
2023-02-19T00:13:17.064Z,9.58
2023-02-19T00:14:16.561Z,9.57
2023-02-19T00:15:17.056Z,9.54
2023-02-19T00:16:16.546Z,9.54
2023-02-19T00:17:17.109Z,9.55
2023-02-19T00:18:16.629Z,9.48
2023-02-19T00:19:17.108Z,9.46
2023-02-19T00:20:16.605Z,9.44
2023-02-19T00:21:17.093Z,9.46
2023-02-19T00:22:16.496Z,9.43
2023-02-19T00:23:16.985Z,9.43
2023-02-19T00:24:16.484Z,9.46
2023-02-19T00:25:16.990Z,9.43
2023-02-19T00:26:18.695Z,9.41
2023-02-19T00:27:16.431Z,9.41
2023-02-19T00:28:16.968Z,9.36
2023-02-19T00:29:16.469Z,9.36
2023-02-19T00:30:16.991Z,9.38
2023-02-19T00:31:16.664Z,9.34
2023-02-19T00:32:17.194Z,9.37
2023-02-19T00:33:16.770Z,9.34
2023-02-19T00:34:17.309Z,9.31
2023-02-19T00:35:16.832Z,9.33
2023-02-19T00:36:16.327Z,9.33
2023-02-19T00:37:16.821Z,9.34
2023-02-19T00:38:16.343Z,9.33
2023-02-19T00:39:16.829Z,9.33
2023-02-19T00:40:16.326Z,9.31
2023-02-19T00:41:16.842Z,9.31
2023-02-19T00:42:17.164Z,9.31
2023-02-19T00:43:16.636Z,9.31
2023-02-19T00:44:17.169Z,9.31
2023-02-19T00:45:16.686Z,9.31
2023-02-19T00:46:17.341Z,9.27
2023-02-19T00:47:16.994Z,9.27
2023-02-19T00:48:16.508Z,9.26
2023-02-19T00:49:17.034Z,9.27
2023-02-19T00:50:16.545Z,9.26
2023-02-19T00:51:17.057Z,9.23
2023-02-19T00:52:16.832Z,9.23
2023-02-19T00:53:16.329Z,9.22
2023-02-19T00:54:16.856Z,9.23
2023-02-19T00:55:16.333Z,9.23
2023-02-19T00:56:16.858Z,9.19
2023-02-19T00:57:16.342Z,9.20
2023-02-19T00:58:16.833Z,9.18
2023-02-19T00:59:16.365Z,9.13
2023-02-19T01:00:16.853Z,9.12
2023-02-19T01:01:16.387Z,9.09
2023-02-19T01:02:17.192Z,9.09
2023-02-19T01:03:16.694Z,9.12
2023-02-19T01:04:17.204Z,9.09
2023-02-19T01:05:16.724Z,9.05
2023-02-19T01:06:17.287Z,9.01
2023-02-19T01:07:16.786Z,8.95
2023-02-19T01:08:17.288Z,8.91
2023-02-19T01:09:16.785Z,8.90
2023-02-19T01:10:17.298Z,8.90
2023-02-19T01:11:16.792Z,8.88
2023-02-19T01:12:17.055Z,8.85
2023-02-19T01:13:16.584Z,8.78
2023-02-19T01:14:17.106Z,8.78
2023-02-19T01:15:16.692Z,8.78
2023-02-19T01:16:17.275Z,8.78
2023-02-19T01:17:16.880Z,8.72
2023-02-19T01:18:16.353Z,8.75
2023-02-19T01:19:16.893Z,8.75
2023-02-19T01:20:16.415Z,8.71
2023-02-19T01:21:16.923Z,8.69
2023-02-19T01:22:16.476Z,8.69
2023-02-19T01:23:16.989Z,8.72
2023-02-19T01:24:16.479Z,8.69
2023-02-19T01:25:16.949Z,8.68
2023-02-19T01:26:16.441Z,8.65
2023-02-19T01:27:16.898Z,8.69
2023-02-19T01:28:16.363Z,8.69
2023-02-19T01:29:16.863Z,8.69
2023-02-19T01:30:16.455Z,8.68
2023-02-19T01:31:17.097Z,8.71
2023-02-19T01:32:17.330Z,8.68
2023-02-19T01:33:16.917Z,8.68
2023-02-19T01:34:16.438Z,8.65
2023-02-19T01:35:16.983Z,8.67
2023-02-19T01:36:16.504Z,8.67
2023-02-19T01:37:17.008Z,8.67
2023-02-19T01:38:16.519Z,8.68
2023-02-19T01:39:17.008Z,8.64
2023-02-19T01:40:16.508Z,8.65
2023-02-19T01:41:17.009Z,8.65
2023-02-19T01:42:16.632Z,8.64
2023-02-19T01:43:17.137Z,8.64
2023-02-19T01:44:16.628Z,8.61
2023-02-19T01:45:17.169Z,8.61
2023-02-19T01:46:16.673Z,8.64
2023-02-19T01:47:17.224Z,8.61
2023-02-19T01:48:16.742Z,8.61
2023-02-19T01:49:17.244Z,8.61
2023-02-19T01:50:16.743Z,8.60
2023-02-19T01:51:17.281Z,8.60
2023-02-19T01:52:17.131Z,8.60
2023-02-19T01:53:16.633Z,8.63
2023-02-19T01:54:17.119Z,8.58
2023-02-19T01:55:16.604Z,8.57
2023-02-19T01:56:17.129Z,8.58
2023-02-19T01:57:16.645Z,8.57
2023-02-19T01:58:17.163Z,8.58
2023-02-19T01:59:16.671Z,8.60
2023-02-19T02:00:17.237Z,8.56
2023-02-19T02:01:16.726Z,8.60
2023-02-19T02:02:17.294Z,8.58
2023-02-19T02:03:16.909Z,8.57
2023-02-19T02:04:16.392Z,8.58
2023-02-19T02:05:16.904Z,8.56
2023-02-19T02:06:16.414Z,8.57
2023-02-19T02:07:16.924Z,8.61
2023-02-19T02:08:16.414Z,8.60
2023-02-19T02:09:16.930Z,8.56
2023-02-19T02:10:16.454Z,8.54
2023-02-19T02:11:16.992Z,8.56
2023-02-19T02:12:16.781Z,8.57
2023-02-19T02:13:17.331Z,8.57
2023-02-19T02:14:16.828Z,8.58
2023-02-19T02:15:16.374Z,8.58
2023-02-19T02:16:16.862Z,8.57
2023-02-19T02:17:16.462Z,8.58
2023-02-19T02:18:16.965Z,8.58
2023-02-19T02:19:16.433Z,8.58
2023-02-19T02:20:16.910Z,8.56
2023-02-19T02:21:16.427Z,8.56
2023-02-19T02:22:16.357Z,8.54
2023-02-19T02:23:16.855Z,8.57
2023-02-19T02:24:16.335Z,8.53
2023-02-19T02:25:16.804Z,8.56
2023-02-19T02:26:17.357Z,8.54
2023-02-19T02:27:16.832Z,8.53
2023-02-19T02:28:16.327Z,8.54
2023-02-19T02:29:16.811Z,8.51
2023-02-19T02:30:17.485Z,8.48
2023-02-19T02:31:17.201Z,8.44
2023-02-19T02:32:16.575Z,8.44
2023-02-19T02:33:17.198Z,8.44
2023-02-19T02:34:16.712Z,8.44
2023-02-19T02:35:17.192Z,8.44
2023-02-19T02:36:16.667Z,8.44
2023-02-19T02:37:17.141Z,8.40
2023-02-19T02:38:16.634Z,8.40
2023-02-19T02:39:17.137Z,8.40
2023-02-19T02:40:16.653Z,8.36
2023-02-19T02:41:17.166Z,8.37
2023-02-19T02:42:16.565Z,8.37
2023-02-19T02:43:17.061Z,8.35
2023-02-19T02:44:16.590Z,8.35
2023-02-19T02:45:17.111Z,8.35
2023-02-19T02:46:16.622Z,8.29
2023-02-19T02:47:17.105Z,8.30
2023-02-19T02:48:16.617Z,8.32
2023-02-19T02:49:17.087Z,8.30
2023-02-19T02:50:16.568Z,8.29
2023-02-19T02:51:17.100Z,8.29
2023-02-19T02:52:16.954Z,8.30
2023-02-19T02:53:16.461Z,8.35
2023-02-19T02:54:17.006Z,8.36
2023-02-19T02:55:16.513Z,8.37
2023-02-19T02:56:17.059Z,8.41
2023-02-19T02:57:16.565Z,8.44
2023-02-19T02:58:17.068Z,8.44
2023-02-19T02:59:16.585Z,8.46
2023-02-19T03:00:17.093Z,8.46
2023-02-19T03:01:16.591Z,8.47
2023-02-19T03:02:16.910Z,8.48
2023-02-19T03:03:16.433Z,8.46
2023-02-19T03:04:16.904Z,8.51
2023-02-19T03:05:16.521Z,8.48
2023-02-19T03:06:17.053Z,8.50
2023-02-19T03:07:16.560Z,8.50
2023-02-19T03:08:17.043Z,8.53
2023-02-19T03:09:16.564Z,8.57
2023-02-19T03:10:17.070Z,8.60
2023-02-19T03:11:16.556Z,8.58
2023-02-19T03:12:16.407Z,8.58
2023-02-19T03:13:16.920Z,8.58
2023-02-19T03:14:16.421Z,8.61
2023-02-19T03:15:16.942Z,8.58
2023-02-19T03:16:16.513Z,8.61
2023-02-19T03:17:17.093Z,8.61
2023-02-19T03:18:16.605Z,8.64
2023-02-19T03:19:17.127Z,8.63
2023-02-19T03:20:16.606Z,8.64
2023-02-19T03:21:17.108Z,8.64
2023-02-19T03:22:16.512Z,8.65
2023-02-19T03:23:16.996Z,8.67
2023-02-19T03:24:16.524Z,8.64
2023-02-19T03:25:17.000Z,8.61
2023-02-19T03:26:16.521Z,8.63
2023-02-19T03:27:17.088Z,8.65
2023-02-19T03:28:16.578Z,8.65
2023-02-19T03:29:17.051Z,8.64
2023-02-19T03:30:16.751Z,8.64
2023-02-19T03:31:17.326Z,8.63
2023-02-19T03:32:16.600Z,8.67
2023-02-19T03:33:17.140Z,8.68
2023-02-19T03:34:16.642Z,8.65
2023-02-19T03:35:17.149Z,8.68
2023-02-19T03:36:16.661Z,8.67
2023-02-19T03:37:17.146Z,8.65
2023-02-19T03:38:16.653Z,8.67
2023-02-19T03:39:17.148Z,8.67
2023-02-19T03:40:16.650Z,8.67
2023-02-19T03:41:17.127Z,8.67
2023-02-19T03:42:16.868Z,8.67
2023-02-19T03:43:16.662Z,8.65
2023-02-19T03:44:17.148Z,8.64
2023-02-19T03:45:16.645Z,8.65
2023-02-19T03:46:17.173Z,8.64
2023-02-19T03:47:16.658Z,8.65
2023-02-19T03:48:17.152Z,8.67
2023-02-19T03:49:16.642Z,8.67
2023-02-19T03:50:17.195Z,8.67
2023-02-19T03:51:16.723Z,8.67
2023-02-19T03:52:17.294Z,8.68
2023-02-19T03:53:16.790Z,8.65
2023-02-19T03:54:17.280Z,8.68
2023-02-19T03:55:16.772Z,8.68
2023-02-19T03:56:17.320Z,8.68
2023-02-19T03:57:16.820Z,8.68
2023-02-19T03:58:16.352Z,8.68
2023-02-19T03:59:16.856Z,8.67
2023-02-19T04:00:16.357Z,8.68
2023-02-19T04:01:16.835Z,8.65
2023-02-19T04:02:16.424Z,8.67
2023-02-19T04:03:17.040Z,8.65
2023-02-19T04:04:16.577Z,8.65
2023-02-19T04:05:17.225Z,8.65
2023-02-19T04:06:16.739Z,8.65
2023-02-19T04:07:17.257Z,8.65
2023-02-19T04:08:16.757Z,8.64
2023-02-19T04:09:17.250Z,8.64
2023-02-19T04:10:16.748Z,8.69
2023-02-19T04:11:17.281Z,8.69
2023-02-19T04:12:16.387Z,8.68
2023-02-19T04:13:16.893Z,8.67
2023-02-19T04:14:16.374Z,8.72
2023-02-19T04:15:16.878Z,8.69
2023-02-19T04:16:16.379Z,8.69
2023-02-19T04:17:16.944Z,8.71
2023-02-19T04:18:16.457Z,8.71
2023-02-19T04:19:16.971Z,8.69
2023-02-19T04:20:16.460Z,8.71
2023-02-19T04:21:16.953Z,8.71
2023-02-19T04:22:17.309Z,8.74
2023-02-19T04:23:16.852Z,8.72
2023-02-19T04:24:16.328Z,8.74
2023-02-19T04:25:16.853Z,8.71
2023-02-19T04:26:16.338Z,8.68
2023-02-19T04:27:16.862Z,8.72
2023-02-19T04:28:16.541Z,8.71
2023-02-19T04:29:17.110Z,8.71
2023-02-19T04:30:16.689Z,8.75
2023-02-19T04:31:17.372Z,8.75
2023-02-19T04:32:16.643Z,8.76
2023-02-19T04:33:17.119Z,8.78
2023-02-19T04:34:16.626Z,8.75
2023-02-19T04:35:17.151Z,8.78
2023-02-19T04:36:16.679Z,8.79
2023-02-19T04:37:17.195Z,8.78
2023-02-19T04:38:16.730Z,8.78
2023-02-19T04:39:17.231Z,8.79
2023-02-19T04:40:16.723Z,8.82
2023-02-19T04:41:17.217Z,8.79
2023-02-19T04:42:17.157Z,8.82
2023-02-19T04:43:16.647Z,8.81
2023-02-19T04:44:17.120Z,8.82
2023-02-19T04:45:16.584Z,8.82
2023-02-19T04:46:17.107Z,8.84
2023-02-19T04:47:16.646Z,8.84
2023-02-19T04:48:17.149Z,8.82
2023-02-19T04:49:16.646Z,8.81
2023-02-19T04:50:17.135Z,8.81
2023-02-19T04:51:16.666Z,8.84
2023-02-19T04:52:16.418Z,8.85
2023-02-19T04:53:16.893Z,8.84
2023-02-19T04:54:16.397Z,8.84
2023-02-19T04:55:16.912Z,8.87
2023-02-19T04:56:16.407Z,8.87
2023-02-19T04:57:16.916Z,8.85
2023-02-19T04:58:16.391Z,8.87
2023-02-19T04:59:16.863Z,8.87
2023-02-19T05:00:16.357Z,8.87
2023-02-19T05:01:16.864Z,8.88
2023-02-19T05:02:17.120Z,8.87
2023-02-19T05:03:16.594Z,8.85
2023-02-19T05:04:17.192Z,8.87
2023-02-19T05:05:16.743Z,8.87
2023-02-19T05:06:17.269Z,8.87
2023-02-19T05:07:16.763Z,8.88
2023-02-19T05:08:17.239Z,8.88
2023-02-19T05:09:16.719Z,8.90
2023-02-19T05:10:17.235Z,8.90
2023-02-19T05:11:16.739Z,8.91
2023-02-19T05:12:16.901Z,8.87
2023-02-19T05:13:16.377Z,8.90
2023-02-19T05:14:16.911Z,8.88
2023-02-19T05:15:16.439Z,8.88
2023-02-19T05:16:16.922Z,8.90
2023-02-19T05:17:16.428Z,8.90
2023-02-19T05:18:16.956Z,8.87
2023-02-19T05:19:16.512Z,8.90
2023-02-19T05:20:17.003Z,8.87
2023-02-19T05:21:16.524Z,8.85
2023-02-19T05:22:17.203Z,8.90
2023-02-19T05:23:16.706Z,8.88
2023-02-19T05:24:17.202Z,8.90
2023-02-19T05:25:16.702Z,8.92
2023-02-19T05:26:17.215Z,8.92
2023-02-19T05:27:16.670Z,8.91
2023-02-19T05:28:17.171Z,8.91
2023-02-19T05:29:16.705Z,8.88
2023-02-19T05:30:17.257Z,8.88
2023-02-19T05:31:16.991Z,8.91
2023-02-19T05:32:17.248Z,8.92
2023-02-19T05:33:16.882Z,8.91
2023-02-19T05:34:16.408Z,8.92
2023-02-19T05:35:16.896Z,8.90
2023-02-19T05:36:16.386Z,8.91
2023-02-19T05:37:16.883Z,8.90
2023-02-19T05:38:16.411Z,8.88
2023-02-19T05:39:16.902Z,8.92
2023-02-19T05:40:16.419Z,8.92
2023-02-19T05:41:16.924Z,8.88
2023-02-19T05:42:16.558Z,8.90
2023-02-19T05:43:17.023Z,8.87
2023-02-19T05:44:16.502Z,8.88
2023-02-19T05:45:16.971Z,8.91
2023-02-19T05:46:16.487Z,8.91
2023-02-19T05:47:17.167Z,8.90
2023-02-19T05:48:16.672Z,8.90
2023-02-19T05:49:17.245Z,8.88
2023-02-19T05:50:17.148Z,8.91
2023-02-19T05:51:16.655Z,8.92
2023-02-19T05:52:16.542Z,8.92
2023-02-19T05:53:17.024Z,8.92
2023-02-19T05:54:16.549Z,8.94
2023-02-19T05:55:17.068Z,8.95
2023-02-19T05:56:16.557Z,8.98
2023-02-19T05:57:17.037Z,8.95
2023-02-19T05:58:16.508Z,8.95
2023-02-19T05:59:17.002Z,8.95
2023-02-19T06:00:16.484Z,8.95
2023-02-19T06:01:16.965Z,8.95
2023-02-19T06:02:16.628Z,8.96
2023-02-19T06:03:17.146Z,8.94
2023-02-19T06:04:16.686Z,8.92
2023-02-19T06:05:17.194Z,8.96
2023-02-19T06:06:16.681Z,8.95
2023-02-19T06:07:17.183Z,8.96
2023-02-19T06:08:16.707Z,8.95
2023-02-19T06:09:17.174Z,8.98
2023-02-19T06:10:16.645Z,8.95
2023-02-19T06:11:17.124Z,8.95
2023-02-19T06:12:16.813Z,8.96
2023-02-19T06:13:17.828Z,8.94
2023-02-19T06:14:16.404Z,8.94
2023-02-19T06:15:16.968Z,8.95
2023-02-19T06:16:16.495Z,8.94
2023-02-19T06:17:17.037Z,8.92
2023-02-19T06:18:16.593Z,8.94
2023-02-19T06:19:17.081Z,8.95
2023-02-19T06:20:16.604Z,8.98
2023-02-19T06:21:17.119Z,9.01
2023-02-19T06:22:16.549Z,8.99
2023-02-19T06:23:17.040Z,8.99
2023-02-19T06:24:16.510Z,8.99
2023-02-19T06:25:17.021Z,9.01
2023-02-19T06:26:16.522Z,8.98
2023-02-19T06:27:17.017Z,8.96
2023-02-19T06:28:16.504Z,8.92
2023-02-19T06:29:17.003Z,8.94
2023-02-19T06:30:16.528Z,8.92
2023-02-19T06:31:17.142Z,8.92
2023-02-19T06:32:17.074Z,8.92
2023-02-19T06:33:16.807Z,8.95
2023-02-19T06:34:16.341Z,8.95
2023-02-19T06:35:16.828Z,8.94
2023-02-19T06:36:16.343Z,8.96
2023-02-19T06:37:16.835Z,8.94
2023-02-19T06:38:16.323Z,8.91
2023-02-19T06:39:16.842Z,8.92
2023-02-19T06:40:16.322Z,8.92
2023-02-19T06:41:16.806Z,8.90
2023-02-19T06:42:16.471Z,8.90
2023-02-19T06:43:17.009Z,8.90
2023-02-19T06:44:16.523Z,8.91
2023-02-19T06:45:17.021Z,8.95
2023-02-19T06:46:16.592Z,8.94
2023-02-19T06:47:17.200Z,8.92
2023-02-19T06:48:16.685Z,8.95
2023-02-19T06:49:17.174Z,8.96
2023-02-19T06:50:16.673Z,8.96
2023-02-19T06:51:17.176Z,8.94
2023-02-19T06:52:17.030Z,8.94
2023-02-19T06:53:16.530Z,8.98
2023-02-19T06:54:17.011Z,8.94
2023-02-19T06:55:16.487Z,8.95
2023-02-19T06:56:16.976Z,8.92
2023-02-19T06:57:16.483Z,8.96
2023-02-19T06:58:16.991Z,8.92
2023-02-19T06:59:16.490Z,8.92
2023-02-19T07:00:16.983Z,8.94
2023-02-19T07:01:16.504Z,8.94
2023-02-19T07:02:17.011Z,8.92
2023-02-19T07:03:16.496Z,8.91
2023-02-19T07:04:17.048Z,8.91
2023-02-19T07:05:16.666Z,8.92
2023-02-19T07:06:17.181Z,8.96
2023-02-19T07:07:16.688Z,8.94
2023-02-19T07:08:17.236Z,8.96
2023-02-19T07:09:16.882Z,8.96
2023-02-19T07:10:16.376Z,8.95
2023-02-19T07:11:16.930Z,8.92
2023-02-19T07:12:16.535Z,8.92
2023-02-19T07:13:17.058Z,8.95
2023-02-19T07:14:16.570Z,8.92
2023-02-19T07:15:17.061Z,8.95
2023-02-19T07:16:16.557Z,8.96
2023-02-19T07:17:17.113Z,8.96
2023-02-19T07:18:16.617Z,9.02
2023-02-19T07:19:17.122Z,9.02
2023-02-19T07:20:16.616Z,9.03
2023-02-19T07:21:17.111Z,9.03
2023-02-19T07:22:17.084Z,9.03
2023-02-19T07:23:16.557Z,9.05
2023-02-19T07:24:17.049Z,9.05
2023-02-19T07:25:16.559Z,9.05
2023-02-19T07:26:17.107Z,9.06
2023-02-19T07:27:16.638Z,9.05
2023-02-19T07:28:17.143Z,9.08
2023-02-19T07:29:16.647Z,9.06
2023-02-19T07:30:17.179Z,9.09
2023-02-19T07:31:16.846Z,9.09
2023-02-19T07:32:16.578Z,9.08
2023-02-19T07:33:17.080Z,9.13
2023-02-19T07:34:16.645Z,9.13
2023-02-19T07:35:17.131Z,9.13
2023-02-19T07:36:16.609Z,9.15
2023-02-19T07:37:17.139Z,9.16
2023-02-19T07:38:16.672Z,9.18
2023-02-19T07:39:17.201Z,9.20
2023-02-19T07:40:16.699Z,9.18
2023-02-19T07:41:17.227Z,9.20
2023-02-19T07:42:16.665Z,9.20
2023-02-19T07:43:17.172Z,9.20
2023-02-19T07:44:16.717Z,9.22
2023-02-19T07:45:17.226Z,9.25
2023-02-19T07:46:16.729Z,9.25
2023-02-19T07:47:17.234Z,9.26
2023-02-19T07:48:16.726Z,9.22
2023-02-19T07:49:17.306Z,9.19
2023-02-19T07:50:16.803Z,9.25
2023-02-19T07:51:17.357Z,9.20
2023-02-19T07:52:17.129Z,9.25
2023-02-19T07:53:16.630Z,9.27
2023-02-19T07:54:17.122Z,9.30
2023-02-19T07:55:16.621Z,9.25
2023-02-19T07:56:17.117Z,9.26
2023-02-19T07:57:16.597Z,9.29
2023-02-19T07:58:17.132Z,9.26
2023-02-19T07:59:16.623Z,9.26
2023-02-19T08:00:17.110Z,9.30
2023-02-19T08:01:16.677Z,9.31
2023-02-19T08:02:17.030Z,9.30
2023-02-19T08:03:16.625Z,9.31
2023-02-19T08:04:17.279Z,9.36
2023-02-19T08:05:16.786Z,9.37
2023-02-19T08:06:17.300Z,9.40
2023-02-19T08:07:16.827Z,9.34
2023-02-19T08:08:16.327Z,9.37
2023-02-19T08:09:16.820Z,9.36
2023-02-19T08:10:17.317Z,9.33
2023-02-19T08:11:16.813Z,9.37
2023-02-19T08:12:16.441Z,9.37
2023-02-19T08:13:16.976Z,9.36
2023-02-19T08:14:16.476Z,9.34
2023-02-19T08:15:16.967Z,9.38
2023-02-19T08:16:22.023Z,9.43
2023-02-19T08:17:17.151Z,9.38
2023-02-19T08:18:16.718Z,9.38
2023-02-19T08:19:17.206Z,9.40
2023-02-19T08:20:16.707Z,9.41
2023-02-19T08:21:17.236Z,9.40
2023-02-19T08:22:16.778Z,9.41
2023-02-19T08:23:16.448Z,9.43
2023-02-19T08:24:16.945Z,9.41
2023-02-19T08:25:16.457Z,9.44
2023-02-19T08:26:16.988Z,9.44
2023-02-19T08:27:16.488Z,9.44
2023-02-19T08:28:16.969Z,9.43
2023-02-19T08:29:16.461Z,9.47
2023-02-19T08:30:16.989Z,9.51
2023-02-19T08:31:16.641Z,9.51
2023-02-19T08:32:16.408Z,9.54
2023-02-19T08:33:17.078Z,9.51
2023-02-19T08:34:16.620Z,9.53
2023-02-19T08:35:17.107Z,9.53
2023-02-19T08:36:16.606Z,9.55
2023-02-19T08:37:17.078Z,9.59
2023-02-19T08:38:16.577Z,9.59
2023-02-19T08:39:18.420Z,9.59
2023-02-19T08:40:16.436Z,9.58
2023-02-19T08:41:16.898Z,9.59
2023-02-19T08:42:16.417Z,9.62
2023-02-19T08:43:16.908Z,9.64
2023-02-19T08:44:16.448Z,9.66
2023-02-19T08:45:16.954Z,9.68
2023-02-19T08:46:16.487Z,9.68
2023-02-19T08:47:17.078Z,9.71
2023-02-19T08:48:16.574Z,9.69
2023-02-19T08:49:17.066Z,9.71
2023-02-19T08:50:16.563Z,9.68
2023-02-19T08:51:17.075Z,9.66
2023-02-19T08:52:16.509Z,9.68
2023-02-19T08:53:16.986Z,9.72
2023-02-19T08:54:16.509Z,9.74
2023-02-19T08:55:16.995Z,9.65
2023-02-19T08:56:16.757Z,9.74
2023-02-19T08:57:17.226Z,9.72
2023-02-19T08:58:16.714Z,9.76
2023-02-19T08:59:17.218Z,9.72
2023-02-19T09:00:16.708Z,9.68
2023-02-19T09:01:17.277Z,9.69
2023-02-19T09:02:16.749Z,9.72
2023-02-19T09:03:17.244Z,9.78
2023-02-19T09:04:16.803Z,9.80
2023-02-19T09:05:16.406Z,9.85
2023-02-19T09:06:16.909Z,9.88
2023-02-19T09:07:16.418Z,9.86
2023-02-19T09:08:16.914Z,9.89
2023-02-19T09:09:16.409Z,9.86
2023-02-19T09:10:16.900Z,9.86
2023-02-19T09:11:16.397Z,9.95
2023-02-19T09:12:16.840Z,9.96
2023-02-19T09:13:16.384Z,10.06
2023-02-19T09:14:16.868Z,10.05
2023-02-19T09:15:16.392Z,9.99
2023-02-19T09:16:16.892Z,9.99
2023-02-19T09:17:16.433Z,9.96
2023-02-19T09:18:16.935Z,9.92
2023-02-19T09:19:16.405Z,9.88
2023-02-19T09:20:16.865Z,9.91
2023-02-19T09:21:16.347Z,9.91
2023-02-19T09:22:16.970Z,9.88
2023-02-19T09:23:16.426Z,9.92
2023-02-19T09:24:16.899Z,9.93
2023-02-19T09:25:16.381Z,9.92
2023-02-19T09:26:17.087Z,9.84
2023-02-19T09:27:16.583Z,9.81
2023-02-19T09:28:17.090Z,9.80
2023-02-19T09:29:16.588Z,9.75
2023-02-19T09:30:17.121Z,9.76
2023-02-19T09:31:17.024Z,9.74
2023-02-19T09:32:19.134Z,9.69
2023-02-19T09:33:16.861Z,9.66
2023-02-19T09:34:16.341Z,9.65
2023-02-19T09:35:16.867Z,9.66
2023-02-19T09:36:16.364Z,9.69
2023-02-19T09:37:16.885Z,9.69
2023-02-19T09:38:16.394Z,9.65
2023-02-19T09:39:16.902Z,9.65
2023-02-19T09:40:16.424Z,9.74
2023-02-19T09:41:16.929Z,9.75
2023-02-19T09:42:17.284Z,9.75
2023-02-19T09:43:16.792Z,9.75
2023-02-19T09:44:16.298Z,9.78
2023-02-19T09:45:16.796Z,9.82
2023-02-19T09:46:17.468Z,9.82
2023-02-19T09:47:17.060Z,9.78
2023-02-19T09:48:16.568Z,9.72
2023-02-19T09:49:17.039Z,9.75
2023-02-19T09:50:16.559Z,9.78
2023-02-19T09:51:17.211Z,9.71
2023-02-19T09:52:16.561Z,9.66
2023-02-19T09:53:17.055Z,9.65
2023-02-19T09:54:16.567Z,9.66
2023-02-19T09:55:17.055Z,9.69
2023-02-19T09:56:16.876Z,9.72
2023-02-19T09:57:16.383Z,9.75
2023-02-19T09:58:16.553Z,9.75
2023-02-19T09:59:17.066Z,9.71
2023-02-19T10:00:16.596Z,9.75
2023-02-19T10:01:17.152Z,9.75
2023-02-19T10:02:16.429Z,9.80
2023-02-19T10:03:16.950Z,9.82
2023-02-19T10:04:16.433Z,9.81
2023-02-19T10:05:16.957Z,9.80
2023-02-19T10:06:16.501Z,9.82
2023-02-19T10:07:17.019Z,9.76
2023-02-19T10:08:16.515Z,9.75
2023-02-19T10:09:17.017Z,9.71
2023-02-19T10:10:16.513Z,9.69
2023-02-19T10:11:17.026Z,9.69
2023-02-19T10:12:16.569Z,9.66
2023-02-19T10:13:17.064Z,9.64
2023-02-19T10:14:16.591Z,9.59
2023-02-19T10:15:17.080Z,9.58
2023-02-19T10:16:16.610Z,9.59
2023-02-19T10:17:17.137Z,9.61
2023-02-19T10:18:16.626Z,9.65
2023-02-19T10:19:17.151Z,9.68
2023-02-19T10:20:16.659Z,9.68
2023-02-19T10:21:17.158Z,9.66
2023-02-19T10:22:16.855Z,9.71
2023-02-19T10:23:16.330Z,9.68
2023-02-19T10:24:16.827Z,9.68
2023-02-19T10:25:16.329Z,9.68
2023-02-19T10:26:16.845Z,9.71
2023-02-19T10:27:16.351Z,9.71
2023-02-19T10:28:16.836Z,9.74
2023-02-19T10:29:16.330Z,9.74
2023-02-19T10:30:16.869Z,9.78
2023-02-19T10:31:17.199Z,9.81
2023-02-19T10:32:16.930Z,9.86
2023-02-19T10:33:16.661Z,9.88
2023-02-19T10:34:17.172Z,9.89
2023-02-19T10:35:16.668Z,9.89
2023-02-19T10:36:17.173Z,9.89
2023-02-19T10:37:16.667Z,9.93
2023-02-19T10:38:17.168Z,9.98
2023-02-19T10:39:16.701Z,9.98
2023-02-19T10:40:17.208Z,10.02
2023-02-19T10:41:16.808Z,10.05
2023-02-19T10:42:17.073Z,10.09
2023-02-19T10:43:16.561Z,10.06
2023-02-19T10:44:17.051Z,10.05
2023-02-19T10:45:16.533Z,10.08
2023-02-19T10:46:17.089Z,10.10
2023-02-19T10:47:16.657Z,10.12
2023-02-19T10:48:17.187Z,10.08
2023-02-19T10:49:16.681Z,10.08
2023-02-19T10:50:17.149Z,10.02
2023-02-19T10:51:16.620Z,9.98
2023-02-19T10:52:17.202Z,9.95
2023-02-19T10:53:16.686Z,9.80
2023-02-19T10:54:17.186Z,9.74
2023-02-19T10:55:16.711Z,9.62
2023-02-19T10:56:17.289Z,9.61
2023-02-19T10:57:16.802Z,9.55
2023-02-19T10:58:17.321Z,9.53
2023-02-19T10:59:16.833Z,9.48
2023-02-19T11:00:16.339Z,9.44
2023-02-19T11:01:16.814Z,9.53
2023-02-19T11:02:17.266Z,9.51
2023-02-19T11:03:16.774Z,9.54
2023-02-19T11:04:17.363Z,9.47
2023-02-19T11:05:16.969Z,9.48
2023-02-19T11:06:16.570Z,9.48
2023-02-19T11:07:17.114Z,9.50
2023-02-19T11:08:16.644Z,9.50
2023-02-19T11:09:17.136Z,9.51
2023-02-19T11:10:16.675Z,9.55
2023-02-19T11:11:16.344Z,9.58
2023-02-19T11:12:16.754Z,9.59
2023-02-19T11:13:17.299Z,9.59
2023-02-19T11:14:16.801Z,9.69
2023-02-19T11:15:16.304Z,9.71
2023-02-19T11:16:16.792Z,9.80
2023-02-19T11:17:16.344Z,9.81
2023-02-19T11:18:16.823Z,9.76
2023-02-19T11:19:16.336Z,9.75
2023-02-19T11:20:16.849Z,9.72
2023-02-19T11:21:16.387Z,9.72
2023-02-19T11:22:17.304Z,9.72
2023-02-19T11:23:16.804Z,9.71
2023-02-19T11:24:16.366Z,9.74
2023-02-19T11:25:16.934Z,9.75
2023-02-19T11:26:16.533Z,9.80
2023-02-19T11:27:17.018Z,9.84
2023-02-19T11:28:16.544Z,9.92
2023-02-19T11:29:17.050Z,9.92
2023-02-19T11:30:16.696Z,9.92
2023-02-19T11:31:17.343Z,9.98
2023-02-19T11:32:17.166Z,9.95
2023-02-19T11:33:16.921Z,9.98
2023-02-19T11:34:16.460Z,10.02
2023-02-19T11:35:16.961Z,10.03
2023-02-19T11:36:16.472Z,10.03
2023-02-19T11:37:16.983Z,9.98
2023-02-19T11:38:16.505Z,9.95
2023-02-19T11:39:17.041Z,9.95
2023-02-19T11:40:16.571Z,9.96
2023-02-19T11:41:17.102Z,9.96
2023-02-19T11:42:16.515Z,9.99
2023-02-19T11:43:17.032Z,9.92
2023-02-19T11:44:16.526Z,9.95
2023-02-19T11:45:17.023Z,9.92
2023-02-19T11:46:16.509Z,9.96
2023-02-19T11:47:17.042Z,10.05
2023-02-19T11:48:16.548Z,10.00
2023-02-19T11:49:17.044Z,9.99
2023-02-19T11:50:16.567Z,10.05
2023-02-19T11:51:17.049Z,10.14
2023-02-19T11:52:16.758Z,10.13
2023-02-19T11:53:17.284Z,10.16
2023-02-19T11:54:16.768Z,10.23
2023-02-19T11:55:17.254Z,10.27
2023-02-19T11:56:16.758Z,10.21
2023-02-19T11:57:17.260Z,10.13
2023-02-19T11:58:16.761Z,10.16
2023-02-19T11:59:17.251Z,10.19
2023-02-19T12:00:16.748Z,10.19
2023-02-19T12:01:17.400Z,10.24
2023-02-19T12:02:16.680Z,10.28
2023-02-19T12:03:16.402Z,10.24
2023-02-19T12:04:16.909Z,10.30
2023-02-19T12:05:16.474Z,10.31
2023-02-19T12:06:17.038Z,10.21
2023-02-19T12:07:16.963Z,10.28
2023-02-19T12:08:16.510Z,10.30
2023-02-19T12:09:17.021Z,10.21
2023-02-19T12:10:16.537Z,10.20
2023-02-19T12:11:17.053Z,10.24
2023-02-19T12:12:16.708Z,10.28
2023-02-19T12:13:17.205Z,10.21
2023-02-19T12:14:16.700Z,10.24
2023-02-19T12:15:17.190Z,10.27
2023-02-19T12:16:16.698Z,10.16
2023-02-19T12:17:17.283Z,10.09
2023-02-19T12:18:16.797Z,10.08
2023-02-19T12:19:17.286Z,10.09
2023-02-19T12:20:16.798Z,10.03
2023-02-19T12:21:17.364Z,9.99
2023-02-19T12:22:17.023Z,9.92
2023-02-19T12:23:16.537Z,9.91
2023-02-19T12:24:17.060Z,9.91
2023-02-19T12:25:16.599Z,9.88
2023-02-19T12:26:17.092Z,9.82
2023-02-19T12:27:16.624Z,9.80
2023-02-19T12:28:17.091Z,9.82
2023-02-19T12:29:16.602Z,9.85
2023-02-19T12:30:17.173Z,9.88
2023-02-19T12:31:16.939Z,9.93
2023-02-19T12:32:16.361Z,9.91
2023-02-19T12:33:16.841Z,9.86
2023-02-19T12:34:16.340Z,9.93
2023-02-19T12:35:16.902Z,9.91
2023-02-19T12:36:16.408Z,9.88
2023-02-19T12:37:16.941Z,9.85
2023-02-19T12:38:16.470Z,9.84
2023-02-19T12:39:16.988Z,9.78
2023-02-19T12:40:16.484Z,9.84
2023-02-19T12:41:17.008Z,9.84
2023-02-19T12:42:16.632Z,9.80
2023-02-19T12:43:17.115Z,9.82
2023-02-19T12:44:16.630Z,9.88
2023-02-19T12:45:17.118Z,9.76
2023-02-19T12:46:16.682Z,9.76
2023-02-19T12:47:17.239Z,9.75
2023-02-19T12:48:16.819Z,9.75
2023-02-19T12:49:16.317Z,9.75
2023-02-19T12:50:16.846Z,9.80
2023-02-19T12:51:16.325Z,9.84
2023-02-19T12:52:17.119Z,9.85
2023-02-19T12:53:16.800Z,9.84
2023-02-19T12:54:16.301Z,9.82
2023-02-19T12:55:17.143Z,9.75
2023-02-19T12:56:16.700Z,9.76
2023-02-19T12:57:16.422Z,9.75
2023-02-19T12:58:16.892Z,9.75
2023-02-19T12:59:16.407Z,9.74
2023-02-19T13:00:16.882Z,9.71
2023-02-19T13:01:16.425Z,9.74
2023-02-19T13:02:17.038Z,9.69
2023-02-19T13:03:16.672Z,9.69
2023-02-19T13:04:17.177Z,9.75
2023-02-19T13:05:16.687Z,9.75
2023-02-19T13:06:17.521Z,9.82
2023-02-19T13:07:16.844Z,9.88
2023-02-19T13:08:16.315Z,9.86
2023-02-19T13:09:16.811Z,9.84
2023-02-19T13:10:17.331Z,9.86
2023-02-19T13:11:16.855Z,9.86
2023-02-19T13:12:17.131Z,9.86
2023-02-19T13:13:16.851Z,9.85
2023-02-19T13:14:16.336Z,9.85
2023-02-19T13:15:16.880Z,9.95
2023-02-19T13:16:18.684Z,10.09